createdAt,value
2023-05-23T00:01:24.937Z,77.21
2023-05-23T00:03:53.946Z,78.45
2023-05-23T00:06:23.702Z,78.59
2023-05-23T00:08:50.632Z,78.11
2023-05-23T00:11:18.988Z,77.91
2023-05-23T00:13:45.978Z,78.51
2023-05-23T00:16:12.694Z,78.44
2023-05-23T00:18:43.252Z,78.34
2023-05-23T00:21:10.144Z,78.18
2023-05-23T00:23:36.919Z,77.36
2023-05-23T00:26:04.936Z,76.99
2023-05-23T00:28:31.654Z,77.12
2023-05-23T00:30:58.480Z,76.64
2023-05-23T00:33:26.619Z,77.67
2023-05-23T00:35:53.290Z,78.01
2023-05-23T00:38:20.148Z,77.81
2023-05-23T00:40:47.544Z,78.75
2023-05-23T00:43:14.456Z,77.87
2023-05-23T00:45:41.634Z,77.08
2023-05-23T00:48:09.077Z,77.10
2023-05-23T00:50:36.231Z,77.40
2023-05-23T00:53:03.939Z,77.95
2023-05-23T00:55:32.479Z,77.36
2023-05-23T00:57:59.621Z,76.75
2023-05-23T01:00:27.775Z,76.71
2023-05-23T01:02:55.008Z,75.58
2023-05-23T01:05:25.248Z,75.66
2023-05-23T01:07:53.112Z,75.54
2023-05-23T01:10:26.052Z,75.86
2023-05-23T01:13:14.840Z,75.89
2023-05-23T01:16:09.703Z,76.49
2023-05-23T01:19:18.353Z,76.53
2023-05-23T01:21:53.388Z,76.81
2023-05-23T01:24:40.363Z,76.99
2023-05-23T01:27:50.473Z,77.43
2023-05-23T01:30:20.437Z,77.66
2023-05-23T01:32:50.768Z,77.23
2023-05-23T01:35:26.908Z,77.34
2023-05-23T01:37:55.841Z,76.95
2023-05-23T01:40:25.157Z,77.31
2023-05-23T01:42:55.241Z,77.61
2023-05-23T01:45:22.200Z,77.04
2023-05-23T01:47:51.294Z,77.36
2023-05-23T01:50:18.587Z,76.74
2023-05-23T01:52:47.562Z,76.26
2023-05-23T01:55:18.973Z,75.94
2023-05-23T01:57:49.802Z,75.75
2023-05-23T02:00:17.402Z,75.47
2023-05-23T02:02:47.505Z,75.45
2023-05-23T02:05:16.641Z,75.40
2023-05-23T02:07:43.408Z,76.16
2023-05-23T02:10:10.273Z,75.39
2023-05-23T02:12:38.122Z,75.90
2023-05-23T02:15:05.745Z,76.44
2023-05-23T02:17:32.730Z,76.01
2023-05-23T02:19:59.873Z,75.96
2023-05-23T02:22:26.609Z,75.92
2023-05-23T02:24:53.598Z,76.35
2023-05-23T02:27:20.341Z,76.23
2023-05-23T02:29:47.133Z,76.19
2023-05-23T02:32:14.074Z,76.48
2023-05-23T02:34:40.848Z,76.76
2023-05-23T02:37:07.990Z,76.44
2023-05-23T02:39:37.139Z,76.46
2023-05-23T02:42:04.865Z,76.41
2023-05-23T02:44:32.267Z,76.51
2023-05-23T02:46:59.066Z,77.08
2023-05-23T02:49:25.954Z,76.86
2023-05-23T02:51:52.892Z,77.35
2023-05-23T02:54:19.955Z,77.12
2023-05-23T02:56:46.929Z,76.52
2023-05-23T02:59:13.865Z,76.71
2023-05-23T03:01:40.776Z,77.14
2023-05-23T03:04:07.716Z,76.42
2023-05-23T03:06:36.880Z,76.24
2023-05-23T03:09:04.111Z,76.69
2023-05-23T03:11:30.955Z,77.03
2023-05-23T03:13:59.555Z,77.70
2023-05-23T03:16:26.505Z,77.59
2023-05-23T03:18:53.543Z,76.65
2023-05-23T03:21:20.301Z,77.11
2023-05-23T03:23:47.526Z,76.71
2023-05-23T03:26:14.261Z,77.67
2023-05-23T03:28:41.062Z,77.59
2023-05-23T03:31:07.758Z,77.25
2023-05-23T03:33:34.489Z,76.77
2023-05-23T03:36:01.277Z,77.14
2023-05-23T03:38:28.045Z,76.74
2023-05-23T03:40:54.853Z,76.58
2023-05-23T03:43:21.618Z,77.06
2023-05-23T03:45:48.739Z,77.73
2023-05-23T03:48:17.530Z,77.08
2023-05-23T03:50:44.624Z,76.82
2023-05-23T03:53:12.093Z,76.25
2023-05-23T03:55:42.607Z,75.30
2023-05-23T03:58:09.696Z,73.99
2023-05-23T04:00:37.143Z,73.19
2023-05-23T04:03:06.939Z,72.20
2023-05-23T04:05:33.727Z,72.61
2023-05-23T04:08:01.657Z,72.39
2023-05-23T04:10:28.973Z,72.94
2023-05-23T04:12:57.076Z,73.26
2023-05-23T04:15:24.852Z,73.29
2023-05-23T04:18:03.767Z,72.18
2023-05-23T04:20:31.156Z,71.67
2023-05-23T04:22:57.931Z,72.34
2023-05-23T04:25:26.405Z,72.00
2023-05-23T04:28:06.604Z,70.94
2023-05-23T04:30:33.746Z,70.93
2023-05-23T04:33:00.572Z,70.63
2023-05-23T04:35:29.071Z,69.77
2023-05-23T04:37:56.873Z,69.98
2023-05-23T04:40:25.814Z,70.53
2023-05-23T04:43:16.493Z,71.55
2023-05-23T04:45:56.039Z,69.92
2023-05-23T04:48:34.924Z,69.77
2023-05-23T04:51:06.145Z,69.35
2023-05-23T04:53:33.025Z,69.71
2023-05-23T04:55:59.774Z,70.45
2023-05-23T04:58:26.666Z,69.88
2023-05-23T05:00:57.129Z,68.26
2023-05-23T05:03:25.209Z,68.24
2023-05-23T05:05:52.168Z,67.22
2023-05-23T05:08:20.103Z,67.93
2023-05-23T05:10:47.143Z,67.80
2023-05-23T05:13:15.921Z,67.36
2023-05-23T05:15:47.923Z,66.25
2023-05-23T05:18:14.916Z,65.03
2023-05-23T05:20:42.180Z,65.55
2023-05-23T05:23:09.915Z,65.79
2023-05-23T05:25:38.299Z,66.05
2023-05-23T05:28:06.085Z,65.48
2023-05-23T05:30:37.558Z,65.79
2023-05-23T05:33:06.410Z,64.77
2023-05-23T05:35:34.376Z,64.65
2023-05-23T05:38:05.475Z,64.60
2023-05-23T05:40:32.856Z,65.34
2023-05-23T05:43:01.393Z,64.51
2023-05-23T05:45:28.190Z,63.66
2023-05-23T05:47:55.090Z,63.46
2023-05-23T05:50:23.824Z,62.13
2023-05-23T05:52:51.273Z,62.80
2023-05-23T05:55:18.100Z,61.49
2023-05-23T05:57:48.479Z,60.52
2023-05-23T06:00:19.212Z,59.82
2023-05-23T06:02:52.068Z,60.20
2023-05-23T06:05:39.460Z,59.41
2023-05-23T06:08:06.574Z,59.54
2023-05-23T06:10:33.587Z,59.03
2023-05-23T06:13:00.458Z,59.72
2023-05-23T06:15:27.476Z,59.55
2023-05-23T06:17:54.260Z,59.21
2023-05-23T06:20:22.058Z,59.36
2023-05-23T06:22:49.272Z,58.61
2023-05-23T06:25:16.372Z,58.02
2023-05-23T06:27:44.908Z,56.94
2023-05-23T06:30:12.240Z,58.34
2023-05-23T06:32:40.627Z,57.81
2023-05-23T06:35:07.877Z,58.07
2023-05-23T06:37:35.192Z,57.85
2023-05-23T06:40:02.143Z,57.92
2023-05-23T06:42:28.796Z,57.54
2023-05-23T06:45:19.069Z,58.19
2023-05-23T06:47:48.054Z,57.35
2023-05-23T06:50:14.872Z,55.65
2023-05-23T06:52:42.920Z,54.48
2023-05-23T06:55:10.273Z,54.76
2023-05-23T06:57:39.398Z,54.15
2023-05-23T07:00:07.008Z,55.28
2023-05-23T07:02:39.883Z,53.12
2023-05-23T07:05:07.288Z,52.33
2023-05-23T07:07:52.330Z,52.71
2023-05-23T07:10:19.961Z,51.23
2023-05-23T07:12:48.506Z,50.10
2023-05-23T07:15:16.701Z,51.63
2023-05-23T07:18:09.673Z,51.11
2023-05-23T07:20:36.585Z,50.61
2023-05-23T07:23:11.447Z,50.08
2023-05-23T07:25:50.142Z,50.38
2023-05-23T07:28:29.443Z,49.97
2023-05-23T07:30:58.375Z,50.64
2023-05-23T07:33:25.497Z,50.03
2023-05-23T07:36:00.927Z,49.63
2023-05-23T07:38:27.673Z,49.03
2023-05-23T07:41:03.079Z,52.41
2023-05-23T07:43:37.433Z,52.15
2023-05-23T07:46:04.320Z,51.93
2023-05-23T07:48:32.134Z,52.11
2023-05-23T07:50:59.264Z,51.70
2023-05-23T07:53:26.381Z,52.33
2023-05-23T07:55:53.181Z,51.36
2023-05-23T07:58:22.164Z,51.87
2023-05-23T08:00:51.140Z,52.18
2023-05-23T08:03:39.497Z,52.42
2023-05-23T08:06:13.132Z,50.86
2023-05-23T08:08:39.863Z,52.13
2023-05-23T08:11:08.462Z,51.83
2023-05-23T08:13:41.095Z,51.63
2023-05-23T08:16:31.027Z,51.10
2023-05-23T08:18:58.311Z,50.59
2023-05-23T08:21:25.055Z,51.42
2023-05-23T08:23:52.126Z,49.96
2023-05-23T08:26:19.144Z,51.35
2023-05-23T08:28:47.508Z,49.98
2023-05-23T08:31:14.806Z,49.55
2023-05-23T08:33:41.778Z,50.01
2023-05-23T08:36:08.447Z,50.44
2023-05-23T08:38:35.329Z,50.77
2023-05-23T08:41:20.135Z,48.62
2023-05-23T08:43:49.328Z,49.17
2023-05-23T08:46:23.196Z,49.22
2023-05-23T08:48:54.793Z,50.02
2023-05-23T08:51:26.267Z,49.63
2023-05-23T08:53:56.446Z,49.15
2023-05-23T08:56:28.526Z,48.68
2023-05-23T08:58:57.142Z,48.16
2023-05-23T09:01:26.519Z,48.19
2023-05-23T09:03:56.384Z,47.65
2023-05-23T09:06:29.544Z,48.45
2023-05-23T09:08:57.222Z,46.81
2023-05-23T09:11:25.433Z,48.06
2023-05-23T09:13:52.582Z,46.70
2023-05-23T09:16:20.567Z,46.72
2023-05-23T09:18:56.106Z,46.40
2023-05-23T09:21:25.375Z,46.55
2023-05-23T09:24:14.751Z,47.82
2023-05-23T09:26:42.366Z,47.59
2023-05-23T09:29:09.184Z,46.74
2023-05-23T09:31:35.952Z,46.93
2023-05-23T09:34:02.943Z,48.83
2023-05-23T09:36:30.601Z,48.08
2023-05-23T09:38:57.521Z,46.43
2023-05-23T09:41:25.241Z,47.60
2023-05-23T09:43:54.178Z,46.10
2023-05-23T09:46:22.364Z,46.90
2023-05-23T09:48:52.197Z,47.60
2023-05-23T09:51:21.878Z,48.59
2023-05-23T09:53:49.706Z,46.84
2023-05-23T09:56:17.540Z,45.44
2023-05-23T09:58:48.253Z,47.15
2023-05-23T10:01:16.353Z,46.42
2023-05-23T10:03:51.183Z,45.53
2023-05-23T10:06:25.656Z,46.36
2023-05-23T10:09:01.897Z,46.37
2023-05-23T10:11:34.771Z,45.56
2023-05-23T10:14:05.649Z,46.25
2023-05-23T10:16:59.293Z,45.22
2023-05-23T10:19:35.961Z,45.68
2023-05-23T10:22:06.989Z,45.30
2023-05-23T10:24:35.699Z,46.87
2023-05-23T10:27:03.644Z,45.82
2023-05-23T10:29:31.392Z,46.08
2023-05-23T10:31:59.200Z,46.07
2023-05-23T10:34:32.200Z,46.73
2023-05-23T10:37:10.484Z,48.50
2023-05-23T10:39:44.533Z,47.96
2023-05-23T10:42:32.454Z,50.43
2023-05-23T10:45:22.276Z,49.44
2023-05-23T10:47:50.315Z,49.36
2023-05-23T10:50:34.576Z,50.64
2023-05-23T10:53:03.326Z,51.35
2023-05-23T10:55:35.245Z,51.93
2023-05-23T10:58:11.498Z,52.46
2023-05-23T11:00:38.628Z,48.31
2023-05-23T11:03:09.177Z,49.66
2023-05-23T11:05:38.749Z,48.97
2023-05-23T11:08:14.015Z,49.52
2023-05-23T11:11:01.205Z,50.13
2023-05-23T11:13:55.816Z,50.21
2023-05-23T11:16:32.761Z,50.62
2023-05-23T11:19:18.177Z,51.22
2023-05-23T11:21:46.532Z,49.84
2023-05-23T11:24:13.250Z,50.16
2023-05-23T11:26:40.008Z,50.89
2023-05-23T11:29:10.050Z,50.09
2023-05-23T11:31:40.752Z,48.37
2023-05-23T11:34:07.952Z,48.60
2023-05-23T11:36:35.397Z,47.45
2023-05-23T11:39:03.854Z,49.89
2023-05-23T11:41:31.433Z,46.55
2023-05-23T11:43:59.867Z,46.47
2023-05-23T11:46:26.948Z,45.04
2023-05-23T11:48:55.096Z,47.84
2023-05-23T11:51:22.178Z,46.83
2023-05-23T11:53:49.367Z,48.62
2023-05-23T11:56:19.081Z,49.31
2023-05-23T11:58:45.879Z,50.61
2023-05-23T12:01:13.859Z,53.60
2023-05-23T12:03:48.835Z,52.16
2023-05-23T12:06:16.741Z,53.37
2023-05-23T12:08:43.607Z,55.35
2023-05-23T12:11:11.845Z,56.56
2023-05-23T12:13:42.245Z,59.82
2023-05-23T12:16:09.571Z,63.16
2023-05-23T12:18:38.115Z,63.71
2023-05-23T12:21:08.073Z,64.27
2023-05-23T12:23:36.439Z,62.74
2023-05-23T12:26:07.454Z,64.46
2023-05-23T12:28:38.702Z,65.65
2023-05-23T12:31:10.632Z,64.91
2023-05-23T12:33:44.191Z,66.13
2023-05-23T12:36:12.043Z,64.71
2023-05-23T12:38:40.818Z,64.60
2023-05-23T12:41:09.676Z,64.87
2023-05-23T12:43:51.725Z,64.99
2023-05-23T12:46:19.334Z,65.96
2023-05-23T12:48:46.061Z,66.43
2023-05-23T12:51:13.136Z,67.77
2023-05-23T12:53:39.970Z,68.28
2023-05-23T12:56:07.034Z,68.42
2023-05-23T12:58:34.385Z,68.29
2023-05-23T13:01:02.612Z,69.03
2023-05-23T13:03:33.553Z,68.06
2023-05-23T13:06:00.787Z,66.80
2023-05-23T13:08:27.728Z,66.68
2023-05-23T13:10:54.704Z,67.68
2023-05-23T13:13:22.620Z,68.94
2023-05-23T13:15:51.149Z,69.96
2023-05-23T13:18:18.515Z,69.52
2023-05-23T13:20:46.649Z,69.67
2023-05-23T13:23:14.038Z,70.53
2023-05-23T13:25:41.214Z,69.74
2023-05-23T13:28:08.194Z,68.98
2023-05-23T13:30:34.952Z,70.10
2023-05-23T13:33:01.918Z,70.40
2023-05-23T13:35:28.983Z,71.00
2023-05-23T13:37:55.804Z,70.51
2023-05-23T13:40:23.185Z,67.67
2023-05-23T13:42:51.571Z,68.91
2023-05-23T13:45:19.792Z,68.99
2023-05-23T13:47:47.425Z,68.01
2023-05-23T13:50:14.433Z,69.45
2023-05-23T13:52:44.173Z,68.14
2023-05-23T13:55:12.976Z,64.33
2023-05-23T13:57:39.700Z,63.57
2023-05-23T14:00:09.052Z,62.41
2023-05-23T14:02:36.120Z,58.12
2023-05-23T14:05:03.244Z,58.30
2023-05-23T14:07:30.038Z,62.86
2023-05-23T14:09:57.666Z,57.18
2023-05-23T14:12:24.484Z,56.54
2023-05-23T14:14:51.152Z,56.71
2023-05-23T14:17:18.584Z,56.33
2023-05-23T14:19:46.289Z,55.39
2023-05-23T14:22:13.170Z,56.12
2023-05-23T14:24:39.930Z,56.12
2023-05-23T14:27:10.228Z,56.83
2023-05-23T14:29:37.908Z,56.02
2023-05-23T14:32:04.907Z,55.56
2023-05-23T14:34:32.089Z,57.08
2023-05-23T14:36:58.959Z,58.60
2023-05-23T14:39:25.738Z,55.23
2023-05-23T14:41:52.541Z,55.92
2023-05-23T14:44:19.570Z,56.37
2023-05-23T14:46:50.084Z,54.77
2023-05-23T14:49:19.173Z,53.42
2023-05-23T14:51:51.393Z,53.98
2023-05-23T14:54:19.304Z,54.20
2023-05-23T14:56:46.172Z,55.42
2023-05-23T14:59:13.058Z,55.16
2023-05-23T15:01:40.596Z,56.58
2023-05-23T15:04:09.678Z,56.76
2023-05-23T15:06:38.722Z,56.96
2023-05-23T15:09:05.752Z,57.36
2023-05-23T15:11:34.947Z,58.62
2023-05-23T15:14:01.885Z,58.66
2023-05-23T15:16:32.918Z,59.44
2023-05-23T15:18:59.925Z,60.27
2023-05-23T15:21:27.011Z,61.46
2023-05-23T15:23:54.412Z,61.85
2023-05-23T15:26:21.173Z,62.88
2023-05-23T15:28:47.966Z,63.26
2023-05-23T15:31:14.736Z,63.75
2023-05-23T15:33:41.700Z,63.57
2023-05-23T15:36:08.586Z,64.42
2023-05-23T15:38:35.331Z,64.70
2023-05-23T15:41:03.193Z,65.30
2023-05-23T15:43:30.029Z,66.14
2023-05-23T15:45:56.918Z,66.22
2023-05-23T15:48:23.787Z,66.33
2023-05-23T15:50:50.500Z,66.29
2023-05-23T15:53:17.348Z,66.61
2023-05-23T15:55:44.238Z,67.54
2023-05-23T15:58:11.270Z,67.00
2023-05-23T16:00:38.225Z,67.64
2023-05-23T16:03:05.163Z,66.85
2023-05-23T16:05:31.937Z,67.72
2023-05-23T16:07:58.740Z,68.31
2023-05-23T16:10:25.649Z,68.85
2023-05-23T16:12:52.483Z,68.54
2023-05-23T16:15:19.500Z,70.87
2023-05-23T16:17:46.326Z,72.45
2023-05-23T16:20:13.636Z,73.18
2023-05-23T16:22:41.392Z,74.16
2023-05-23T16:25:10.697Z,74.72
2023-05-23T16:27:37.585Z,74.77
2023-05-23T16:30:06.293Z,74.53
2023-05-23T16:32:33.959Z,74.82
2023-05-23T16:35:01.058Z,76.08
2023-05-23T16:37:27.727Z,75.64
2023-05-23T16:39:54.525Z,76.00
2023-05-23T16:42:21.356Z,77.73
2023-05-23T16:44:48.097Z,75.05
2023-05-23T16:47:14.930Z,76.42
2023-05-23T16:49:41.576Z,76.04
2023-05-23T16:52:08.314Z,78.07
2023-05-23T16:54:35.250Z,78.13
2023-05-23T16:57:02.189Z,78.82
2023-05-23T16:59:29.954Z,77.61
2023-05-23T17:01:57.124Z,77.45
2023-05-23T17:04:24.197Z,77.95
2023-05-23T17:06:51.267Z,78.00
2023-05-23T17:09:18.350Z,78.23
2023-05-23T17:11:45.499Z,78.36
2023-05-23T17:14:12.825Z,79.20
2023-05-23T17:16:39.719Z,78.02
2023-05-23T17:19:07.691Z,76.26
2023-05-23T17:21:34.614Z,77.09
2023-05-23T17:24:02.416Z,77.43
2023-05-23T17:26:29.087Z,76.03
2023-05-23T17:28:56.063Z,77.09
2023-05-23T17:31:23.000Z,78.12
2023-05-23T17:33:49.987Z,78.12
2023-05-23T17:36:16.694Z,78.99
2023-05-23T17:38:43.391Z,79.51
2023-05-23T17:41:10.114Z,78.80
2023-05-23T17:43:36.873Z,78.30
2023-05-23T17:46:03.769Z,76.90
2023-05-23T17:48:45.925Z,77.68
2023-05-23T17:51:14.453Z,77.75
2023-05-23T17:53:41.834Z,78.13
2023-05-23T17:56:09.465Z,79.67
2023-05-23T17:58:37.724Z,79.68
2023-05-23T18:01:05.619Z,79.81
2023-05-23T18:03:32.462Z,81.31
2023-05-23T18:05:59.192Z,81.23
2023-05-23T18:08:25.947Z,81.06
2023-05-23T18:10:52.703Z,81.62
2023-05-23T18:13:19.437Z,81.70
2023-05-23T18:15:46.220Z,81.22
2023-05-23T18:18:12.986Z,82.20
2023-05-23T18:20:40.204Z,82.26
2023-05-23T18:23:07.791Z,82.74
2023-05-23T18:25:34.682Z,82.65
2023-05-23T18:28:02.255Z,82.68
2023-05-23T18:30:29.439Z,83.21
2023-05-23T18:32:56.582Z,83.21
2023-05-23T18:35:25.645Z,81.89
2023-05-23T18:37:53.944Z,82.04
2023-05-23T18:40:21.834Z,82.98
2023-05-23T18:42:50.254Z,83.45
2023-05-23T18:45:17.056Z,84.04
2023-05-23T18:47:44.673Z,84.02
2023-05-23T18:50:13.013Z,83.41
2023-05-23T18:52:39.906Z,84.31
2023-05-23T18:55:07.201Z,84.84
2023-05-23T18:57:33.919Z,84.28
2023-05-23T19:00:00.786Z,83.91
2023-05-23T19:02:27.759Z,84.61
2023-05-23T19:04:54.562Z,84.36
2023-05-23T19:07:21.338Z,85.17
2023-05-23T19:09:48.405Z,85.40
2023-05-23T19:12:15.148Z,86.27
2023-05-23T19:14:41.875Z,86.10
2023-05-23T19:17:09.595Z,86.00
2023-05-23T19:19:37.462Z,85.49
2023-05-23T19:22:04.753Z,84.21
2023-05-23T19:24:32.147Z,85.16
2023-05-23T19:26:58.946Z,85.12
2023-05-23T19:29:26.775Z,84.19
2023-05-23T19:31:54.750Z,83.25
2023-05-23T19:34:21.825Z,83.43
2023-05-23T19:36:49.039Z,83.51
2023-05-23T19:39:16.094Z,83.34
2023-05-23T19:41:42.973Z,83.30
2023-05-23T19:44:09.871Z,83.54
2023-05-23T19:46:36.751Z,83.94
2023-05-23T19:49:03.637Z,83.96
2023-05-23T19:51:30.401Z,82.90
2023-05-23T19:53:57.141Z,82.98
2023-05-23T19:56:25.397Z,82.58
2023-05-23T19:58:52.130Z,82.11
2023-05-23T20:01:18.912Z,81.67
2023-05-23T20:03:45.678Z,82.30
2023-05-23T20:06:12.668Z,82.92
2023-05-23T20:08:39.399Z,82.91
2023-05-23T20:11:06.153Z,83.89
2023-05-23T20:13:32.861Z,84.78
2023-05-23T20:15:59.687Z,84.78
2023-05-23T20:18:26.440Z,84.06
2023-05-23T20:20:53.601Z,84.19
2023-05-23T20:23:20.598Z,84.00
2023-05-23T20:25:48.527Z,84.20
2023-05-23T20:28:15.263Z,83.72
2023-05-23T20:30:42.277Z,83.94
2023-05-23T20:33:09.267Z,84.80
2023-05-23T20:35:36.715Z,85.13
2023-05-23T20:38:03.676Z,85.18
2023-05-23T20:40:33.602Z,84.75
2023-05-23T20:43:04.707Z,84.90
2023-05-23T20:45:32.932Z,84.89
2023-05-23T20:48:00.034Z,83.66
2023-05-23T20:50:26.932Z,83.98
2023-05-23T20:52:54.316Z,84.67
2023-05-23T20:55:22.389Z,84.70
2023-05-23T20:57:49.242Z,84.22
2023-05-23T21:00:18.209Z,84.00
2023-05-23T21:02:45.802Z,83.01
2023-05-23T21:05:12.755Z,83.23
2023-05-23T21:07:39.761Z,84.33
2023-05-23T21:10:06.936Z,84.22
2023-05-23T21:12:33.670Z,83.61
2023-05-23T21:15:00.779Z,83.84
2023-05-23T21:17:27.589Z,83.53
2023-05-23T21:19:54.372Z,83.10
2023-05-23T21:22:21.125Z,82.52
2023-05-23T21:24:47.942Z,83.36
2023-05-23T21:27:14.621Z,84.07
2023-05-23T21:29:41.975Z,84.01
2023-05-23T21:32:08.775Z,84.19
2023-05-23T21:34:35.513Z,85.00
2023-05-23T21:37:02.313Z,85.20
2023-05-23T21:39:39.118Z,84.72
2023-05-23T21:42:10.143Z,86.41
2023-05-23T21:44:38.246Z,86.28
2023-05-23T21:47:07.091Z,85.98
2023-05-23T21:49:35.419Z,86.25
2023-05-23T21:52:02.707Z,86.29
2023-05-23T21:54:29.579Z,86.81
2023-05-23T21:56:56.708Z,86.59
2023-05-23T21:59:23.922Z,86.50
2023-05-23T22:01:50.914Z,87.02
2023-05-23T22:04:20.137Z,85.61
2023-05-23T22:06:47.182Z,86.25
2023-05-23T22:09:15.352Z,86.62
2023-05-23T22:11:42.173Z,85.82
2023-05-23T22:14:09.158Z,86.24
2023-05-23T22:16:41.694Z,85.77
2023-05-23T22:19:10.369Z,85.52
2023-05-23T22:21:37.501Z,85.56
2023-05-23T22:24:04.990Z,85.86
2023-05-23T22:26:32.166Z,85.18
2023-05-23T22:28:59.285Z,83.88
2023-05-23T22:31:26.486Z,83.33
2023-05-23T22:33:53.344Z,84.08
2023-05-23T22:36:22.081Z,84.07
2023-05-23T22:38:48.872Z,82.74
2023-05-23T22:41:15.579Z,82.82
2023-05-23T22:43:42.553Z,83.91
2023-05-23T22:46:09.450Z,82.89
2023-05-23T22:48:36.665Z,83.63
2023-05-23T22:51:04.001Z,83.32
2023-05-23T22:53:31.189Z,83.89
2023-05-23T22:55:57.989Z,83.26
2023-05-23T22:58:24.804Z,84.94
2023-05-23T23:00:51.943Z,85.63
2023-05-23T23:03:19.033Z,86.32
2023-05-23T23:05:46.436Z,87.06
2023-05-23T23:08:13.232Z,87.26
2023-05-23T23:10:41.488Z,88.04
2023-05-23T23:13:08.589Z,88.25
2023-05-23T23:15:36.840Z,87.70
2023-05-23T23:18:05.982Z,87.55
2023-05-23T23:20:33.276Z,88.11
2023-05-23T23:23:00.344Z,88.13
2023-05-23T23:25:27.053Z,87.60
2023-05-23T23:27:53.755Z,87.32
2023-05-23T23:30:20.840Z,87.99
2023-05-23T23:32:47.529Z,86.02
2023-05-23T23:35:14.428Z,85.55
2023-05-23T23:37:41.319Z,85.21
2023-05-23T23:40:08.858Z,85.56
2023-05-23T23:42:35.738Z,86.43
2023-05-23T23:45:02.791Z,86.39
2023-05-23T23:47:29.692Z,86.79
2023-05-23T23:49:56.419Z,85.24
2023-05-23T23:52:23.283Z,86.98
2023-05-23T23:54:49.940Z,87.39
2023-05-23T23:57:16.766Z,87.02
2023-05-23T23:59:43.877Z,86.71
